Pirai do Sul, Brazil
Current Conditions -  °F | °C
As of 11:00 AM on Saturday 20 Dec 2014 (Local Time) from SBBI Reporting Station
Few Clouds Few Clouds  
Wind Chill: 77°   Ceiling: Unl
Heat Index: 79°   Visibility: 6mi
Dew Point: 66°   Wind: 7mph
Humidity: 69%   Direction: 340°NNW
Pressure: 29.94"   Gusts: NA
Location:  24.53°S, 49.95°W
Report Text: SBBI 201300Z 34006KT 9999 FEW020 25/19 Q1014
Loading
Personal Weather Stations






























Interactive Weather Map New forecast layout! Learn more

10-Day Weather Forecast

Advertisements
Track Severe Weather on mobile